createdAt,value
2023-04-25T00:01:27.742Z,3.44
2023-04-25T00:03:56.109Z,3.40
2023-04-25T00:06:27.409Z,3.45
2023-04-25T00:08:56.688Z,3.43
2023-04-25T00:11:24.976Z,3.43
2023-04-25T00:13:55.392Z,3.45
2023-04-25T00:16:24.909Z,3.45
2023-04-25T00:18:54.777Z,3.44
2023-04-25T00:21:23.332Z,3.42
2023-04-25T00:23:51.583Z,3.45
2023-04-25T00:26:19.613Z,3.43
2023-04-25T00:28:47.620Z,3.41
2023-04-25T00:31:16.977Z,3.40
2023-04-25T00:33:44.958Z,3.36
2023-04-25T00:36:12.950Z,3.36
2023-04-25T00:38:40.986Z,3.37
2023-04-25T00:41:09.857Z,3.35
2023-04-25T00:43:39.093Z,3.37
2023-04-25T00:46:07.431Z,3.38
2023-04-25T00:48:36.778Z,3.40
2023-04-25T00:51:04.889Z,3.42
2023-04-25T00:53:34.157Z,3.40
2023-04-25T00:56:02.135Z,3.41
2023-04-25T00:58:30.142Z,3.40
2023-04-25T01:00:59.485Z,3.42
2023-04-25T01:03:29.850Z,3.39
2023-04-25T01:05:59.317Z,3.36
2023-04-25T01:08:27.392Z,3.35
2023-04-25T01:10:55.317Z,3.34
2023-04-25T01:13:23.351Z,3.33
2023-04-25T01:15:51.192Z,3.32
2023-04-25T01:18:20.129Z,3.33
2023-04-25T01:20:49.105Z,3.31
2023-04-25T01:23:18.640Z,3.32
2023-04-25T01:25:47.744Z,3.30
2023-04-25T01:28:16.237Z,3.32
2023-04-25T01:30:44.897Z,3.29
2023-04-25T01:33:15.919Z,3.30
2023-04-25T01:35:43.900Z,3.26
2023-04-25T01:38:12.286Z,3.27
2023-04-25T01:40:42.766Z,3.29
2023-04-25T01:43:13.117Z,3.28
2023-04-25T01:45:42.262Z,3.28
2023-04-25T01:48:10.613Z,3.29
2023-04-25T01:50:39.552Z,3.26
2023-04-25T01:53:08.229Z,3.26
2023-04-25T01:55:36.155Z,3.21
2023-04-25T01:58:10.108Z,3.18
2023-04-25T02:00:39.841Z,3.14
2023-04-25T02:03:10.097Z,3.16
2023-04-25T02:05:41.266Z,3.14
2023-04-25T02:08:10.106Z,3.16
2023-04-25T02:10:38.156Z,3.08
2023-04-25T02:13:07.592Z,3.07
2023-04-25T02:15:35.524Z,3.04
2023-04-25T02:18:03.636Z,3.03
2023-04-25T02:20:32.490Z,3.01
2023-04-25T02:23:00.391Z,3.01
2023-04-25T02:25:28.559Z,2.95
2023-04-25T02:27:56.499Z,2.93
2023-04-25T02:30:25.973Z,2.95
2023-04-25T02:32:53.895Z,2.93
2023-04-25T02:35:22.089Z,2.94
2023-04-25T02:37:49.964Z,2.89
2023-04-25T02:40:17.825Z,2.90
2023-04-25T02:42:46.696Z,2.89
2023-04-25T02:45:14.623Z,2.89
2023-04-25T02:47:43.944Z,2.92
2023-04-25T02:50:12.448Z,2.88
2023-04-25T02:52:40.354Z,2.91
2023-04-25T02:55:08.893Z,2.89
2023-04-25T02:57:36.829Z,2.89
2023-04-25T03:00:06.804Z,2.86
2023-04-25T03:02:34.949Z,2.89
2023-04-25T03:05:04.586Z,2.89
2023-04-25T03:07:32.484Z,2.86
2023-04-25T03:10:00.805Z,2.85
2023-04-25T03:12:28.678Z,2.83
2023-04-25T03:14:56.611Z,2.86
2023-04-25T03:17:24.624Z,2.89
2023-04-25T03:19:52.507Z,2.91
2023-04-25T03:22:21.854Z,2.90
2023-04-25T03:24:49.785Z,2.89
2023-04-25T03:27:17.792Z,2.91
2023-04-25T03:29:45.736Z,2.91
2023-04-25T03:32:13.900Z,2.91
2023-04-25T03:34:42.284Z,2.92
2023-04-25T03:37:10.260Z,2.92
2023-04-25T03:39:39.861Z,2.91
2023-04-25T03:42:07.909Z,2.87
2023-04-25T03:44:35.790Z,2.84
2023-04-25T03:47:03.732Z,2.81
2023-04-25T03:49:32.279Z,2.79
2023-04-25T03:52:00.275Z,2.78
2023-04-25T03:54:30.952Z,2.75
2023-04-25T03:57:00.407Z,2.80
2023-04-25T03:59:28.292Z,2.79
2023-04-25T04:01:56.341Z,2.78
2023-04-25T04:04:24.346Z,2.82
2023-04-25T04:06:53.539Z,2.81
2023-04-25T04:09:21.554Z,2.84
2023-04-25T04:11:49.532Z,2.83
2023-04-25T04:14:18.867Z,2.81
2023-04-25T04:16:47.001Z,2.84
2023-04-25T04:19:14.827Z,2.85
2023-04-25T04:21:42.704Z,2.88
2023-04-25T04:24:11.372Z,2.90
2023-04-25T04:26:39.790Z,2.87
2023-04-25T04:29:08.086Z,2.92
2023-04-25T04:31:37.705Z,2.93
2023-04-25T04:34:05.712Z,2.94
2023-04-25T04:36:34.064Z,2.92
2023-04-25T04:39:02.219Z,2.93
2023-04-25T04:41:30.174Z,2.93
2023-04-25T04:43:58.062Z,2.90
2023-04-25T04:46:26.368Z,2.91
2023-04-25T04:48:57.406Z,2.95
2023-04-25T04:51:25.401Z,2.94
2023-04-25T04:53:53.413Z,2.95
2023-04-25T04:56:24.383Z,2.96
2023-04-25T04:58:52.282Z,2.97
2023-04-25T05:01:20.337Z,2.98
2023-04-25T05:03:48.643Z,3.00
2023-04-25T05:06:18.393Z,3.00
2023-04-25T05:08:46.292Z,3.02
2023-04-25T05:11:14.240Z,3.04
2023-04-25T05:13:42.192Z,3.04
2023-04-25T05:16:10.318Z,3.04
2023-04-25T05:18:38.303Z,3.06
2023-04-25T05:21:06.538Z,3.08
2023-04-25T05:23:36.003Z,3.07
2023-04-25T05:26:04.047Z,3.07
2023-04-25T05:28:31.923Z,3.09
2023-04-25T05:30:59.902Z,3.11
2023-04-25T05:33:27.859Z,3.12
2023-04-25T05:35:55.826Z,3.09
2023-04-25T05:40:36.596Z,3.07
2023-04-25T05:43:04.565Z,3.10
2023-04-25T05:45:32.477Z,3.13
2023-04-25T05:48:00.483Z,3.17
2023-04-25T05:50:29.050Z,3.19
2023-04-25T05:52:56.861Z,3.22
2023-04-25T05:55:24.664Z,3.21
2023-04-25T05:57:54.034Z,3.21
2023-04-25T06:00:23.651Z,3.25
2023-04-25T06:02:51.959Z,3.28
2023-04-25T06:05:22.829Z,3.33
2023-04-25T06:07:51.041Z,3.38
2023-04-25T06:10:19.454Z,3.42
2023-04-25T06:12:47.326Z,3.41
2023-04-25T06:15:28.255Z,3.42
2023-04-25T06:17:57.317Z,3.40
2023-04-25T06:20:25.795Z,3.43
2023-04-25T06:22:54.083Z,3.42
2023-04-25T06:25:22.172Z,3.46
2023-04-25T06:27:50.178Z,3.46
2023-04-25T06:30:23.621Z,3.51
2023-04-25T06:32:54.079Z,3.55
2023-04-25T06:35:22.252Z,3.56
2023-04-25T06:37:50.240Z,3.55
2023-04-25T06:40:18.502Z,3.60
2023-04-25T06:42:46.606Z,3.65
2023-04-25T06:45:14.543Z,3.66
2023-04-25T06:47:44.003Z,3.66
2023-04-25T06:50:12.490Z,3.73
2023-04-25T06:52:40.401Z,3.77
2023-04-25T06:55:09.023Z,3.75
2023-04-25T06:57:36.996Z,3.78
2023-04-25T07:00:09.569Z,3.82
2023-04-25T07:02:37.831Z,3.79
2023-04-25T07:05:07.687Z,3.81
2023-04-25T07:07:35.678Z,3.78
2023-04-25T07:10:03.900Z,3.80
2023-04-25T07:12:31.915Z,3.79
2023-04-25T07:15:06.901Z,3.83
2023-04-25T07:17:35.843Z,3.86
2023-04-25T07:20:04.759Z,3.84
2023-04-25T07:22:34.084Z,3.86
2023-04-25T07:25:02.021Z,3.87
2023-04-25T07:27:29.845Z,3.90
2023-04-25T07:29:57.823Z,3.94
2023-04-25T07:32:25.944Z,3.96
2023-04-25T07:34:54.026Z,3.98
2023-04-25T07:37:21.933Z,4.03
2023-04-25T07:39:51.363Z,4.06
2023-04-25T07:42:19.340Z,4.14
2023-04-25T07:44:47.365Z,4.18
2023-04-25T07:47:15.309Z,4.23
2023-04-25T07:49:43.181Z,4.21
2023-04-25T07:52:11.120Z,4.23
2023-04-25T07:54:38.982Z,4.26
2023-04-25T07:57:08.288Z,4.25
2023-04-25T07:59:36.280Z,4.28
2023-04-25T08:02:04.596Z,4.35
2023-04-25T08:04:32.645Z,4.38
2023-04-25T08:07:00.849Z,4.41
2023-04-25T08:09:28.795Z,4.46
2023-04-25T08:11:56.672Z,4.51
2023-04-25T08:14:25.960Z,4.58
2023-04-25T08:16:53.860Z,4.60
2023-04-25T08:19:21.922Z,4.64
2023-04-25T08:21:49.859Z,4.67
2023-04-25T08:24:18.129Z,4.68
2023-04-25T08:26:46.009Z,4.77
2023-04-25T08:29:13.841Z,4.79
2023-04-25T08:31:43.256Z,4.82
2023-04-25T08:34:14.271Z,4.85
2023-04-25T08:36:42.273Z,4.85
2023-04-25T08:39:10.200Z,4.89
2023-04-25T08:41:39.297Z,4.90
2023-04-25T08:44:09.700Z,4.92
2023-04-25T08:46:40.580Z,4.97
2023-04-25T08:49:11.249Z,4.94
2023-04-25T08:51:47.587Z,5.01
2023-04-25T08:54:33.900Z,5.03
2023-04-25T08:57:04.998Z,5.08
2023-04-25T08:59:35.619Z,5.12
2023-04-25T09:02:05.666Z,5.16
2023-04-25T09:04:35.075Z,5.16
2023-04-25T09:07:02.996Z,5.17
2023-04-25T09:09:31.818Z,5.21
2023-04-25T09:12:00.589Z,5.24
2023-04-25T09:14:29.041Z,5.28
2023-04-25T09:17:05.862Z,5.31
2023-04-25T09:19:40.786Z,5.31
2023-04-25T09:22:10.114Z,5.37
2023-04-25T09:24:40.022Z,5.42
2023-04-25T09:27:09.240Z,5.46
2023-04-25T09:29:38.744Z,5.56
2023-04-25T09:32:25.066Z,5.62
2023-04-25T09:34:56.955Z,5.67
2023-04-25T09:37:26.322Z,5.74
2023-04-25T09:39:56.445Z,5.83
2023-04-25T09:42:25.986Z,5.85
2023-04-25T09:44:55.479Z,5.85
2023-04-25T09:47:25.390Z,5.93
2023-04-25T09:49:57.579Z,5.97
2023-04-25T09:52:28.546Z,5.97
2023-04-25T09:54:56.411Z,6.06
2023-04-25T09:57:25.557Z,6.06
2023-04-25T09:59:54.487Z,6.08
2023-04-25T10:02:24.530Z,6.16
2023-04-25T10:04:56.233Z,6.24
2023-04-25T10:07:27.201Z,6.30
2023-04-25T10:10:00.795Z,6.28
2023-04-25T10:12:28.999Z,6.28
2023-04-25T10:14:57.256Z,6.37
2023-04-25T10:17:25.937Z,6.40
2023-04-25T10:19:56.297Z,6.44
2023-04-25T10:22:31.572Z,6.52
2023-04-25T10:24:59.863Z,6.57
2023-04-25T10:27:29.773Z,6.63
2023-04-25T10:30:05.341Z,6.75
2023-04-25T10:32:34.539Z,6.78
2023-04-25T10:35:14.859Z,6.87
2023-04-25T10:37:57.369Z,6.91
2023-04-25T10:40:25.345Z,6.92
2023-04-25T10:42:54.209Z,6.99
2023-04-25T10:45:22.476Z,7.08
2023-04-25T10:47:50.480Z,7.09
2023-04-25T10:50:21.262Z,7.16
2023-04-25T10:52:49.110Z,7.21
2023-04-25T10:55:17.034Z,7.26
2023-04-25T10:57:47.324Z,7.32
2023-04-25T11:00:16.351Z,7.34
2023-04-25T11:02:46.747Z,7.40
2023-04-25T11:05:36.347Z,7.49
2023-04-25T11:08:13.522Z,7.52
2023-04-25T11:10:42.385Z,7.61
2023-04-25T11:13:10.287Z,7.78
2023-04-25T11:15:39.294Z,7.81
2023-04-25T11:18:09.678Z,7.78
2023-04-25T11:20:38.947Z,7.78
2023-04-25T11:23:06.883Z,7.83
2023-04-25T11:25:35.569Z,7.83
2023-04-25T11:28:06.415Z,7.78
2023-04-25T11:30:34.351Z,7.83
2023-04-25T11:33:04.378Z,7.84
2023-04-25T11:35:34.672Z,7.82
2023-04-25T11:38:03.799Z,7.86
2023-04-25T11:40:32.696Z,7.85
2023-04-25T11:43:02.721Z,7.79
2023-04-25T11:45:31.722Z,7.92
2023-04-25T11:48:02.018Z,8.02
2023-04-25T11:50:30.478Z,7.94
2023-04-25T11:52:59.138Z,8.00
2023-04-25T11:55:28.467Z,8.00
2023-04-25T11:57:56.554Z,8.08
2023-04-25T12:00:25.778Z,8.09
2023-04-25T12:02:55.057Z,8.18
2023-04-25T12:05:32.609Z,8.21
2023-04-25T12:08:15.858Z,8.13
2023-04-25T12:10:48.267Z,8.09
2023-04-25T12:13:23.405Z,8.04
2023-04-25T12:15:51.806Z,8.07
2023-04-25T12:18:22.217Z,8.14
2023-04-25T12:20:49.890Z,8.14
2023-04-25T12:23:18.005Z,8.21
2023-04-25T12:25:48.208Z,8.26
2023-04-25T12:28:20.579Z,8.37
2023-04-25T12:30:58.650Z,8.49
2023-04-25T12:33:28.369Z,8.46
2023-04-25T12:35:57.009Z,8.45
2023-04-25T12:38:30.355Z,8.44
2023-04-25T12:41:00.388Z,8.40
2023-04-25T12:43:28.520Z,8.43
2023-04-25T12:45:57.981Z,8.60
2023-04-25T12:48:26.003Z,8.70
2023-04-25T12:50:56.850Z,8.65
2023-04-25T12:53:25.740Z,8.64
2023-04-25T12:58:28.025Z,8.64
2023-04-25T13:00:56.024Z,8.60
2023-04-25T13:03:24.316Z,8.63
2023-04-25T13:05:53.641Z,8.66
2023-04-25T13:08:21.803Z,8.70
2023-04-25T13:10:49.819Z,8.68
2023-04-25T13:13:18.202Z,8.76
2023-04-25T13:15:47.686Z,8.76
2023-04-25T13:18:15.616Z,8.77
2023-04-25T13:20:43.840Z,8.72
2023-04-25T13:23:11.752Z,8.71
2023-04-25T13:25:39.698Z,8.71
2023-04-25T13:28:07.710Z,8.71
2023-04-25T13:30:36.010Z,8.67
2023-04-25T13:33:07.566Z,8.66
2023-04-25T13:35:37.333Z,8.60
2023-04-25T13:38:05.645Z,8.57
2023-04-25T13:40:34.073Z,8.60
2023-04-25T13:43:01.972Z,8.57
2023-04-25T13:45:31.543Z,8.57
2023-04-25T13:48:01.603Z,8.63
2023-04-25T13:50:31.263Z,8.66
2023-04-25T13:52:59.245Z,8.63
2023-04-25T13:55:28.803Z,8.61
2023-04-25T13:57:56.785Z,8.61
2023-04-25T14:00:24.738Z,8.59
2023-04-25T14:02:52.738Z,8.57
2023-04-25T14:05:20.809Z,8.55
2023-04-25T14:07:50.044Z,8.50
2023-04-25T14:10:17.909Z,8.42
2023-04-25T14:12:46.059Z,8.41
2023-04-25T14:15:13.954Z,8.44
2023-04-25T14:17:42.177Z,8.38
2023-04-25T14:20:11.990Z,8.34
2023-04-25T14:22:44.002Z,8.37
2023-04-25T14:25:13.211Z,8.35
2023-04-25T14:27:41.129Z,8.38
2023-04-25T14:30:10.885Z,8.41
2023-04-25T14:32:41.396Z,8.39
2023-04-25T14:35:10.190Z,8.43
2023-04-25T14:37:38.518Z,8.41
2023-04-25T14:40:08.158Z,8.39
2023-04-25T14:42:37.452Z,8.38
2023-04-25T14:45:07.694Z,8.43
2023-04-25T14:47:35.647Z,8.39
2023-04-25T14:50:03.724Z,8.36
2023-04-25T14:52:31.924Z,8.39
2023-04-25T14:55:01.170Z,8.39
2023-04-25T14:57:29.231Z,8.36
2023-04-25T14:59:58.538Z,8.37
2023-04-25T15:02:27.214Z,8.35
2023-04-25T15:04:55.787Z,8.36
2023-04-25T15:07:23.993Z,8.40
2023-04-25T15:09:52.043Z,8.41
2023-04-25T15:12:20.036Z,8.41
2023-04-25T15:14:47.976Z,8.39
2023-04-25T15:17:17.439Z,8.37
2023-04-25T15:19:45.290Z,8.40
2023-04-25T15:22:13.638Z,8.41
2023-04-25T15:24:41.577Z,8.42
2023-04-25T15:27:09.742Z,8.42
2023-04-25T15:29:37.873Z,8.43
2023-04-25T15:32:06.053Z,8.45
2023-04-25T15:34:36.443Z,8.45
2023-04-25T15:37:04.502Z,8.46
2023-04-25T15:39:33.478Z,8.43
2023-04-25T15:42:03.503Z,8.42
2023-04-25T15:44:31.517Z,8.41
2023-04-25T15:46:59.339Z,8.42
2023-04-25T15:49:28.512Z,8.42
2023-04-25T15:51:57.820Z,8.42
2023-04-25T15:54:25.762Z,8.43
2023-04-25T15:56:53.670Z,8.44
2023-04-25T15:59:21.500Z,8.43
2023-04-25T16:01:49.474Z,8.42
2023-04-25T16:04:17.705Z,8.43
2023-04-25T16:06:45.772Z,8.42
2023-04-25T16:09:15.141Z,8.40
2023-04-25T16:11:43.110Z,8.39
2023-04-25T16:14:10.997Z,8.37
2023-04-25T16:16:38.913Z,8.33
2023-04-25T16:19:06.926Z,8.34
2023-04-25T16:21:34.814Z,8.31
2023-04-25T16:24:02.778Z,8.31
2023-04-25T16:26:32.310Z,8.27
2023-04-25T16:29:00.412Z,8.25
2023-04-25T16:31:28.389Z,8.25
2023-04-25T16:33:56.731Z,8.21
2023-04-25T16:36:24.946Z,8.19
2023-04-25T16:38:53.481Z,8.17
2023-04-25T16:41:22.208Z,8.15
2023-04-25T16:43:51.581Z,8.12
2023-04-25T16:46:20.295Z,8.09
2023-04-25T16:48:49.194Z,8.06
2023-04-25T16:51:17.449Z,8.06
2023-04-25T16:53:46.640Z,8.04
2023-04-25T16:56:14.499Z,8.03
2023-04-25T16:58:42.474Z,8.03
2023-04-25T17:01:16.027Z,8.01
2023-04-25T17:03:44.904Z,7.99
2023-04-25T17:06:13.208Z,7.98
2023-04-25T17:08:41.628Z,7.95
2023-04-25T17:11:10.389Z,7.94
2023-04-25T17:13:38.295Z,7.94
2023-04-25T17:16:07.475Z,7.90
2023-04-25T17:18:37.204Z,7.87
2023-04-25T17:21:06.095Z,7.86
2023-04-25T17:23:35.119Z,7.86
2023-04-25T17:26:03.379Z,7.83
2023-04-25T17:28:31.660Z,7.83
2023-04-25T17:30:59.895Z,7.83
2023-04-25T17:33:28.718Z,7.80
2023-04-25T17:35:58.018Z,7.78
2023-04-25T17:38:25.994Z,7.77
2023-04-25T17:40:53.918Z,7.75
2023-04-25T17:43:21.961Z,7.73
2023-04-25T17:45:49.957Z,7.72
2023-04-25T17:48:18.183Z,7.67
2023-04-25T17:50:46.268Z,7.67
2023-04-25T17:53:15.670Z,7.64
2023-04-25T17:55:43.924Z,7.61
2023-04-25T17:58:12.183Z,7.61
2023-04-25T18:00:40.627Z,7.58
2023-04-25T18:03:08.709Z,7.55
2023-04-25T18:05:36.789Z,7.54
2023-04-25T18:08:05.997Z,7.53
2023-04-25T18:10:35.613Z,7.52
2023-04-25T18:13:03.707Z,7.47
2023-04-25T18:15:31.740Z,7.46
2023-04-25T18:17:59.879Z,7.45
2023-04-25T18:20:28.616Z,7.45
2023-04-25T18:22:57.525Z,7.45
2023-04-25T18:25:25.353Z,7.41
2023-04-25T18:27:54.662Z,7.35
2023-04-25T18:30:22.869Z,7.30
2023-04-25T18:32:50.858Z,7.31
2023-04-25T18:35:18.956Z,7.29
2023-04-25T18:37:47.015Z,7.28
2023-04-25T18:40:16.283Z,7.26
2023-04-25T18:42:44.225Z,7.22
2023-04-25T18:45:13.716Z,7.19
2023-04-25T18:47:41.631Z,7.16
2023-04-25T18:50:10.298Z,7.13
2023-04-25T18:52:38.437Z,7.14
2023-04-25T18:55:07.292Z,7.16
2023-04-25T18:57:35.267Z,7.15
2023-04-25T19:00:06.973Z,7.13
2023-04-25T19:02:38.024Z,7.14
2023-04-25T19:05:07.022Z,7.11
2023-04-25T19:07:34.976Z,7.08
2023-04-25T19:10:04.673Z,7.09
2023-04-25T19:12:33.592Z,7.10
2023-04-25T19:15:01.753Z,7.08
2023-04-25T19:17:30.464Z,7.03
2023-04-25T19:20:00.021Z,6.98
2023-04-25T19:22:28.157Z,6.96
2023-04-25T19:25:09.277Z,6.92
2023-04-25T19:27:38.805Z,6.83
2023-04-25T19:30:10.977Z,6.79
2023-04-25T19:32:40.110Z,6.75
2023-04-25T19:35:11.950Z,6.69
2023-04-25T19:37:45.873Z,6.65
2023-04-25T19:40:15.327Z,6.58
2023-04-25T19:42:43.479Z,6.54
2023-04-25T19:45:12.534Z,6.50
2023-04-25T19:47:40.460Z,6.43
2023-04-25T19:50:11.183Z,6.35
2023-04-25T19:52:40.190Z,6.23
2023-04-25T19:55:10.233Z,6.22
2023-04-25T19:57:38.720Z,6.16
2023-04-25T20:00:10.789Z,6.17
2023-04-25T20:02:39.174Z,6.09
2023-04-25T20:05:10.000Z,5.93
2023-04-25T20:07:38.002Z,5.85
2023-04-25T20:10:07.918Z,5.82
2023-04-25T20:12:37.681Z,5.75
2023-04-25T20:15:06.802Z,5.74
2023-04-25T20:17:34.659Z,5.70
2023-04-25T20:20:04.159Z,5.70
2023-04-25T20:22:37.074Z,5.66
2023-04-25T20:25:06.618Z,5.64
2023-04-25T20:27:34.559Z,5.59
2023-04-25T20:30:07.154Z,5.57
2023-04-25T20:32:35.901Z,5.53
2023-04-25T20:35:07.327Z,5.53
2023-04-25T20:37:37.727Z,5.53
2023-04-25T20:40:07.879Z,5.51
2023-04-25T20:42:36.302Z,5.50
2023-04-25T20:45:07.613Z,5.48
2023-04-25T20:47:36.032Z,5.42
2023-04-25T20:50:06.038Z,5.39
2023-04-25T20:52:34.424Z,5.39
2023-04-25T20:55:03.839Z,5.38
2023-04-25T20:57:32.046Z,5.35
2023-04-25T20:59:59.891Z,5.35
2023-04-25T21:02:28.122Z,5.33
2023-04-25T21:04:56.097Z,5.31
2023-04-25T21:07:24.027Z,5.27
2023-04-25T21:09:52.329Z,5.22
2023-04-25T21:12:21.675Z,5.19
2023-04-25T21:14:49.541Z,5.13
2023-04-25T21:17:17.503Z,5.11
2023-04-25T21:19:45.431Z,5.09
2023-04-25T21:22:13.469Z,5.06
2023-04-25T21:24:41.357Z,5.05
2023-04-25T21:27:09.267Z,4.96
2023-04-25T21:29:38.486Z,4.98
2023-04-25T21:32:06.621Z,4.94
2023-04-25T21:34:34.454Z,4.90
2023-04-25T21:37:02.365Z,4.89
2023-04-25T21:39:30.282Z,4.88
2023-04-25T21:41:58.312Z,4.87
2023-04-25T21:44:28.639Z,4.83
2023-04-25T21:46:57.898Z,4.85
2023-04-25T21:49:29.386Z,4.87
2023-04-25T21:51:57.775Z,4.83
2023-04-25T21:54:25.707Z,4.80
2023-04-25T21:56:53.561Z,4.80
2023-04-25T21:59:24.241Z,4.78
2023-04-25T22:01:52.368Z,4.72
2023-04-25T22:04:24.097Z,4.72
2023-04-25T22:06:52.823Z,4.73
2023-04-25T22:09:23.682Z,4.79
2023-04-25T22:11:53.248Z,4.77
2023-04-25T22:14:22.294Z,4.75
2023-04-25T22:16:50.426Z,4.70
2023-04-25T22:19:18.496Z,4.71
2023-04-25T22:21:48.585Z,4.71
2023-04-25T22:24:16.831Z,4.69
2023-04-25T22:26:44.762Z,4.65
2023-04-25T22:29:12.662Z,4.65
2023-04-25T22:31:40.878Z,4.63
2023-04-25T22:34:08.788Z,4.63
2023-04-25T22:36:36.661Z,4.63
2023-04-25T22:39:06.276Z,4.65
2023-04-25T22:41:34.276Z,4.59
2023-04-25T22:44:02.269Z,4.51
2023-04-25T22:46:30.369Z,4.52
2023-04-25T22:48:58.342Z,4.50
2023-04-25T22:52:08.592Z,4.49
2023-04-25T22:54:37.715Z,4.43
2023-04-25T22:57:07.837Z,4.47
2023-04-25T22:59:38.104Z,4.43
2023-04-25T23:02:05.785Z,4.42
2023-04-25T23:04:34.564Z,4.39
2023-04-25T23:07:02.510Z,4.40
2023-04-25T23:09:30.556Z,4.40
2023-04-25T23:11:59.908Z,4.41
2023-04-25T23:14:27.755Z,4.38
2023-04-25T23:16:55.716Z,4.40
2023-04-25T23:19:23.879Z,4.40
2023-04-25T23:21:51.865Z,4.41
2023-04-25T23:24:19.756Z,4.42
2023-04-25T23:26:47.643Z,4.45
2023-04-25T23:29:17.012Z,4.48
2023-04-25T23:31:44.933Z,4.46
2023-04-25T23:34:12.909Z,4.43
2023-04-25T23:36:40.827Z,4.46
2023-04-25T23:39:10.389Z,4.47
2023-04-25T23:41:38.261Z,4.47
2023-04-25T23:44:14.320Z,4.51
2023-04-25T23:46:43.692Z,4.50
2023-04-25T23:49:11.604Z,4.50
2023-04-25T23:51:39.516Z,4.52
2023-04-25T23:54:07.437Z,4.51
2023-04-25T23:56:35.290Z,4.50
2023-04-25T23:59:03.851Z,4.51
